createdAt,value
2018-03-14T00:00:13.686Z,99.90
2018-03-14T00:02:41.173Z,99.90
2018-03-14T00:05:08.757Z,99.90
2018-03-14T00:07:36.313Z,99.90
2018-03-14T00:10:04.570Z,99.90
2018-03-14T00:12:34.018Z,99.90
2018-03-14T00:15:01.505Z,99.90
2018-03-14T00:17:29.014Z,99.90
2018-03-14T00:19:56.573Z,99.90
2018-03-14T00:22:32.160Z,99.90
2018-03-14T00:24:59.649Z,99.90
2018-03-14T00:27:27.136Z,99.90
2018-03-14T00:29:54.647Z,99.90
2018-03-14T00:32:22.134Z,99.90
2018-03-14T00:34:50.406Z,99.90
2018-03-14T00:37:18.661Z,99.90
2018-03-14T00:39:46.261Z,99.90
2018-03-14T00:42:13.777Z,99.90
2018-03-14T00:44:41.257Z,99.90
2018-03-14T00:47:09.797Z,99.90
2018-03-14T00:49:37.281Z,99.90
2018-03-14T00:52:05.017Z,99.90
2018-03-14T00:54:32.521Z,99.90
2018-03-14T00:57:00.782Z,99.90
2018-03-14T00:59:28.293Z,99.90
2018-03-14T01:01:55.780Z,99.90
2018-03-14T01:04:23.272Z,99.90
2018-03-14T01:06:51.544Z,99.90
2018-03-14T01:09:19.802Z,99.90
2018-03-14T01:11:47.390Z,99.90
2018-03-14T01:14:15.646Z,99.90
2018-03-14T01:16:43.137Z,99.90
2018-03-14T01:19:10.681Z,99.90
2018-03-14T01:21:38.941Z,99.90
2018-03-14T01:24:07.213Z,99.90
2018-03-14T01:26:35.179Z,99.90
2018-03-14T01:29:03.851Z,99.90
2018-03-14T01:31:31.361Z,99.90
2018-03-14T01:33:59.609Z,99.90
2018-03-14T01:36:27.885Z,99.90
2018-03-14T01:38:56.145Z,99.90
2018-03-14T01:41:23.633Z,99.90
2018-03-14T01:43:51.133Z,99.90
2018-03-14T01:46:18.622Z,99.90
2018-03-14T01:48:46.137Z,99.90
2018-03-14T01:51:13.632Z,99.90
2018-03-14T01:53:41.574Z,99.90
2018-03-14T01:56:09.077Z,99.90
2018-03-14T01:58:37.333Z,99.90
2018-03-14T02:01:04.841Z,99.90
2018-03-14T02:03:32.377Z,99.90
2018-03-14T02:06:00.637Z,99.90
2018-03-14T02:08:28.909Z,99.90
2018-03-14T02:10:57.172Z,99.90
2018-03-14T02:13:24.680Z,99.90
2018-03-14T02:15:52.174Z,99.90
2018-03-14T02:18:19.661Z,99.90
2018-03-14T02:20:48.158Z,99.90
2018-03-14T02:23:15.650Z,99.90
2018-03-14T02:25:44.048Z,99.90
2018-03-14T02:28:11.605Z,99.90
2018-03-14T02:30:39.790Z,99.90
2018-03-14T02:33:07.289Z,99.90
2018-03-14T02:35:34.806Z,99.90
2018-03-14T02:38:02.309Z,99.90
2018-03-14T02:40:29.809Z,99.90
2018-03-14T02:42:57.300Z,99.90
2018-03-14T02:45:25.573Z,99.90
2018-03-14T02:47:53.054Z,99.90
2018-03-14T02:50:21.313Z,99.90
2018-03-14T02:52:48.780Z,99.90
2018-03-14T02:55:17.020Z,99.90
2018-03-14T02:57:44.510Z,99.90
2018-03-14T03:00:12.753Z,99.90
2018-03-14T03:02:40.246Z,99.90
2018-03-14T03:05:08.779Z,99.90
2018-03-14T03:07:36.257Z,99.90
2018-03-14T03:10:03.748Z,99.90
2018-03-14T03:12:32.270Z,99.90
2018-03-14T03:14:59.787Z,99.90
2018-03-14T03:17:28.021Z,99.90
2018-03-14T03:19:55.494Z,99.90
2018-03-14T03:22:22.981Z,99.90
2018-03-14T03:24:51.218Z,99.90
2018-03-14T03:27:18.805Z,99.90
2018-03-14T03:29:47.085Z,99.90
2018-03-14T03:32:15.325Z,99.90
2018-03-14T03:34:42.813Z,99.90
2018-03-14T03:37:11.061Z,99.90
2018-03-14T03:39:38.652Z,99.90
2018-03-14T03:42:06.897Z,99.90
2018-03-14T03:44:34.370Z,99.90
2018-03-14T03:47:01.946Z,99.90
2018-03-14T03:49:30.193Z,99.90
2018-03-14T03:51:57.681Z,99.90
2018-03-14T03:54:25.925Z,99.90
2018-03-14T03:56:53.402Z,99.90
2018-03-14T03:59:21.664Z,99.90
2018-03-14T04:01:49.145Z,99.90
2018-03-14T04:04:17.413Z,99.90
2018-03-14T04:06:45.657Z,99.90
2018-03-14T04:09:13.137Z,99.90
2018-03-14T04:11:41.673Z,99.90
2018-03-14T04:14:09.153Z,99.90
2018-03-14T04:16:36.653Z,99.90
2018-03-14T04:19:04.138Z,99.90
2018-03-14T04:21:31.670Z,99.90
2018-03-14T04:23:59.125Z,99.90
2018-03-14T04:26:27.370Z,99.90
2018-03-14T04:28:54.865Z,99.90
2018-03-14T04:31:22.343Z,99.90
2018-03-14T04:33:49.817Z,99.90
2018-03-14T04:36:17.316Z,99.90
2018-03-14T04:38:44.786Z,99.90
2018-03-14T04:41:13.052Z,99.90
2018-03-14T04:43:41.308Z,99.90
2018-03-14T04:46:08.791Z,99.90
2018-03-14T04:48:37.054Z,99.90
2018-03-14T04:51:05.336Z,99.90
2018-03-14T04:53:33.596Z,99.90
2018-03-14T04:56:01.069Z,99.90
2018-03-14T04:58:29.316Z,99.90
2018-03-14T05:00:56.813Z,99.90
2018-03-14T05:03:24.293Z,99.90
2018-03-14T05:05:51.793Z,99.90
2018-03-14T05:08:19.274Z,99.90
2018-03-14T05:10:47.548Z,99.90
2018-03-14T05:13:15.825Z,99.90
2018-03-14T05:15:44.065Z,99.90
2018-03-14T05:18:11.667Z,99.90
2018-03-14T05:20:39.933Z,99.90
2018-03-14T05:23:08.174Z,99.90
2018-03-14T05:25:35.669Z,99.90
2018-03-14T05:28:03.910Z,99.90
2018-03-14T05:30:31.405Z,99.90
2018-03-14T05:32:59.649Z,99.90
2018-03-14T05:35:27.129Z,99.90
2018-03-14T05:37:55.658Z,99.90
2018-03-14T05:40:23.154Z,99.90
2018-03-14T05:42:50.649Z,99.90
2018-03-14T05:45:18.125Z,99.90
2018-03-14T05:47:45.655Z,99.90
2018-03-14T05:50:13.110Z,99.90
2018-03-14T05:52:41.385Z,99.90
2018-03-14T05:55:09.654Z,99.90
2018-03-14T05:57:37.897Z,99.90
2018-03-14T06:00:05.377Z,99.90
2018-03-14T06:02:33.661Z,99.90
2018-03-14T06:05:01.930Z,99.90
2018-03-14T06:07:29.414Z,99.90
2018-03-14T06:09:56.890Z,99.90
2018-03-14T06:12:24.445Z,99.90
2018-03-14T06:14:51.973Z,99.90
2018-03-14T06:17:20.216Z,99.90
2018-03-14T06:19:47.714Z,99.90
2018-03-14T06:22:15.969Z,99.90
2018-03-14T06:24:43.449Z,99.90
2018-03-14T06:27:11.242Z,99.90
2018-03-14T06:29:38.749Z,99.90
2018-03-14T06:32:06.258Z,99.90
2018-03-14T06:34:33.774Z,99.90
2018-03-14T06:37:02.070Z,99.90
2018-03-14T06:39:29.605Z,99.90
2018-03-14T06:41:57.855Z,99.90
2018-03-14T06:44:25.370Z,99.90
2018-03-14T06:46:53.050Z,99.90
2018-03-14T06:49:20.557Z,99.90
2018-03-14T06:51:48.817Z,99.90
2018-03-14T06:54:16.293Z,99.90
2018-03-14T06:56:44.553Z,99.90
2018-03-14T06:59:23.888Z,99.90
2018-03-14T07:02:03.357Z,99.90
2018-03-14T07:18:00.722Z,99.90
2018-03-14T07:20:28.224Z,99.90
2018-03-14T07:22:55.801Z,99.90
2018-03-14T07:25:24.045Z,99.90
2018-03-14T07:27:51.537Z,99.90
2018-03-14T07:30:19.796Z,99.90
2018-03-14T07:32:47.373Z,99.90
2018-03-14T07:35:15.636Z,99.90
2018-03-14T07:37:43.111Z,99.90
2018-03-14T07:40:11.349Z,99.90
2018-03-14T07:42:39.655Z,99.90
2018-03-14T07:45:07.898Z,99.90
2018-03-14T07:47:35.396Z,99.90
2018-03-14T07:50:03.671Z,99.90
2018-03-14T07:52:31.370Z,99.90
2018-03-14T07:54:58.863Z,99.90
2018-03-14T07:57:26.438Z,99.90
2018-03-14T07:59:54.718Z,99.90
2018-03-14T08:02:22.957Z,99.90
2018-03-14T08:04:50.437Z,99.90
2018-03-14T08:07:18.254Z,99.90
2018-03-14T08:22:35.630Z,99.90
2018-03-14T08:25:03.894Z,99.90
2018-03-14T08:27:32.141Z,99.90
2018-03-14T08:29:59.621Z,99.90
2018-03-14T08:32:27.878Z,99.90
2018-03-14T08:34:55.358Z,99.90
2018-03-14T08:37:23.621Z,99.90
2018-03-14T08:39:51.870Z,99.90
2018-03-14T08:42:19.355Z,99.90
2018-03-14T08:44:46.846Z,99.90
2018-03-14T08:47:14.321Z,99.90
2018-03-14T08:49:41.876Z,99.90
2018-03-14T08:52:09.362Z,99.90
2018-03-14T08:54:36.837Z,99.90
2018-03-14T08:57:04.334Z,99.90
2018-03-14T08:59:31.862Z,99.90
2018-03-14T09:01:59.358Z,99.90
2018-03-14T09:04:26.833Z,99.90
2018-03-14T09:06:54.312Z,99.90
2018-03-14T09:09:21.806Z,99.90
2018-03-14T09:11:50.040Z,99.90
2018-03-14T09:14:17.928Z,99.90
2018-03-14T09:16:45.403Z,99.90
2018-03-14T09:19:13.673Z,99.90
2018-03-14T09:21:41.925Z,99.90
2018-03-14T09:24:09.397Z,99.90
2018-03-14T09:26:36.925Z,99.90
2018-03-14T09:29:04.401Z,99.90
2018-03-14T09:31:31.914Z,99.90
2018-03-14T09:33:59.409Z,99.90
2018-03-14T09:36:26.912Z,99.90
2018-03-14T09:38:54.413Z,99.90
2018-03-14T09:41:21.890Z,99.90
2018-03-14T09:43:49.614Z,99.90
2018-03-14T09:46:17.128Z,99.90
2018-03-14T09:48:45.373Z,99.90
2018-03-14T09:51:12.870Z,99.90
2018-03-14T09:53:41.113Z,99.90
2018-03-14T09:56:09.328Z,99.90
2018-03-14T09:58:36.822Z,99.90
2018-03-14T10:01:04.309Z,99.90
2018-03-14T10:03:31.809Z,99.90
2018-03-14T10:05:59.341Z,99.90
2018-03-14T10:08:27.610Z,99.30
2018-03-14T10:10:55.113Z,99.50
2018-03-14T10:13:22.594Z,99.90
2018-03-14T10:15:50.093Z,99.90
2018-03-14T10:18:18.345Z,99.10
2018-03-14T10:20:45.860Z,98.80
2018-03-14T10:23:13.357Z,99.00
2018-03-14T10:25:41.158Z,98.10
2018-03-14T10:28:08.599Z,85.40
2018-03-14T10:30:36.842Z,88.50
2018-03-14T10:33:04.325Z,88.90
2018-03-14T10:35:31.824Z,93.40
2018-03-14T10:37:59.349Z,90.00
2018-03-14T10:40:27.618Z,69.80
2018-03-14T10:42:55.183Z,69.70
2018-03-14T10:45:23.438Z,81.10
2018-03-14T10:47:50.937Z,80.90
2018-03-14T10:50:19.177Z,90.40
2018-03-14T10:52:46.697Z,90.40
2018-03-14T10:55:14.177Z,92.00
2018-03-14T10:57:41.659Z,97.30
2018-03-14T11:00:09.154Z,93.00
2018-03-14T11:02:37.426Z,91.00
2018-03-14T11:05:04.928Z,89.40
2018-03-14T11:07:32.402Z,90.10
2018-03-14T11:09:59.970Z,78.80
2018-03-14T11:12:28.233Z,84.90
2018-03-14T11:14:56.521Z,81.70
2018-03-14T11:17:24.784Z,80.70
2018-03-14T11:19:52.266Z,80.90
2018-03-14T11:22:20.510Z,84.70
2018-03-14T11:24:48.086Z,84.80
2018-03-14T11:27:16.329Z,88.10
2018-03-14T11:29:43.821Z,87.80
2018-03-14T11:32:12.067Z,89.10
2018-03-14T11:34:39.549Z,89.00
2018-03-14T11:37:07.813Z,90.80
2018-03-14T11:39:36.105Z,90.50
2018-03-14T11:42:04.378Z,75.90
2018-03-14T11:44:32.626Z,90.00
2018-03-14T11:47:00.101Z,90.00
2018-03-14T11:49:27.599Z,91.70
2018-03-14T11:51:55.073Z,91.00
2018-03-14T11:54:22.570Z,91.10
2018-03-14T11:56:51.193Z,91.30
2018-03-14T11:59:18.689Z,91.50
2018-03-14T12:01:46.185Z,83.10
2018-03-14T12:04:14.432Z,69.20
2018-03-14T12:06:41.926Z,69.20
2018-03-14T12:09:10.180Z,72.80
2018-03-14T12:11:37.653Z,72.80
2018-03-14T12:14:05.905Z,77.40
2018-03-14T12:16:33.378Z,77.40
2018-03-14T12:19:01.190Z,74.70
2018-03-14T12:21:28.670Z,70.20
2018-03-14T12:23:56.153Z,75.50
2018-03-14T12:26:23.676Z,72.70
2018-03-14T12:28:51.177Z,71.60
2018-03-14T12:31:18.737Z,68.20
2018-03-14T12:33:46.986Z,57.60
2018-03-14T12:36:15.609Z,60.60
2018-03-14T12:38:43.157Z,61.20
2018-03-14T12:41:11.685Z,57.80
2018-03-14T12:43:39.181Z,58.10
2018-03-14T12:46:07.466Z,52.60
2018-03-14T12:48:35.710Z,59.60
2018-03-14T12:51:03.210Z,59.50
2018-03-14T12:53:31.458Z,58.00
2018-03-14T12:55:58.953Z,58.00
2018-03-14T12:58:26.435Z,59.40
2018-03-14T13:00:53.917Z,63.50
2018-03-14T13:03:21.409Z,64.80
2018-03-14T13:05:49.655Z,63.50
2018-03-14T13:08:17.153Z,63.40
2018-03-14T13:10:44.654Z,62.40
2018-03-14T13:13:12.137Z,66.10
2018-03-14T13:15:39.633Z,65.40
2018-03-14T13:18:07.183Z,68.20
2018-03-14T13:20:34.638Z,66.50
2018-03-14T13:23:02.886Z,59.00
2018-03-14T13:25:30.388Z,59.00
2018-03-14T13:27:57.882Z,60.00
2018-03-14T13:30:25.357Z,64.80
2018-03-14T13:32:52.868Z,63.60
2018-03-14T13:37:49.276Z,64.60
2018-03-14T13:40:16.851Z,57.10
2018-03-14T13:42:45.122Z,53.30
2018-03-14T13:45:13.393Z,54.10
2018-03-14T13:47:41.670Z,52.30
2018-03-14T13:50:09.941Z,59.40
2018-03-14T13:52:38.181Z,58.80
2018-03-14T13:55:05.668Z,58.80
2018-03-14T13:57:33.161Z,59.50
2018-03-14T14:00:00.673Z,58.80
2018-03-14T14:02:28.169Z,63.30
2018-03-14T14:04:55.704Z,62.30
2018-03-14T14:07:23.956Z,60.10
2018-03-14T14:09:51.489Z,60.00
2018-03-14T14:12:18.977Z,64.40
2018-03-14T14:14:46.566Z,68.00
2018-03-14T14:17:14.814Z,70.00
2018-03-14T14:19:43.425Z,68.70
2018-03-14T14:22:11.681Z,71.20
2018-03-14T14:24:39.175Z,71.30
2018-03-14T14:27:06.954Z,77.30
2018-03-14T14:29:34.430Z,76.90
2018-03-14T14:32:01.968Z,79.70
2018-03-14T14:34:29.736Z,77.00
2018-03-14T14:36:57.236Z,75.70
2018-03-14T14:39:24.717Z,74.10
2018-03-14T14:41:53.762Z,83.40
2018-03-14T14:44:21.239Z,83.50
2018-03-14T14:46:48.736Z,84.60
2018-03-14T14:51:45.062Z,87.40
2018-03-14T14:54:13.322Z,95.00
2018-03-14T14:56:40.801Z,95.00
2018-03-14T14:59:09.069Z,94.00
2018-03-14T15:01:37.388Z,95.30
2018-03-14T15:04:04.865Z,95.40
2018-03-14T15:06:32.366Z,94.50
2018-03-14T15:09:00.637Z,99.00
2018-03-14T15:11:28.897Z,97.40
2018-03-14T15:13:56.368Z,97.40
2018-03-14T15:16:24.618Z,98.10
2018-03-14T15:18:52.112Z,98.20
2018-03-14T15:21:20.445Z,99.20
2018-03-14T15:23:47.865Z,99.10
2018-03-14T15:26:15.398Z,99.60
2018-03-14T15:28:44.086Z,99.90
2018-03-14T15:31:11.589Z,99.90
2018-03-14T15:33:39.065Z,99.90
2018-03-14T15:36:06.560Z,99.90
2018-03-14T15:38:34.798Z,99.90
2018-03-14T15:41:02.277Z,99.90
2018-03-14T15:43:30.533Z,99.90
2018-03-14T15:45:58.013Z,99.90
2018-03-14T15:48:26.271Z,99.90
2018-03-14T15:50:55.253Z,99.90
2018-03-14T15:53:22.754Z,99.90
2018-03-14T15:55:50.994Z,99.90
2018-03-14T15:58:19.237Z,99.90
2018-03-14T16:00:46.734Z,99.90
2018-03-14T16:03:14.985Z,99.90
2018-03-14T16:05:42.502Z,99.90
2018-03-14T16:08:10.746Z,99.90
2018-03-14T16:10:39.745Z,99.90
2018-03-14T16:13:07.986Z,99.90
2018-03-14T16:15:35.460Z,99.90
2018-03-14T16:18:03.890Z,99.90
2018-03-14T16:20:31.365Z,99.90
2018-03-14T16:22:58.886Z,99.90
2018-03-14T16:25:27.134Z,99.90
2018-03-14T16:27:55.397Z,99.90
2018-03-14T16:30:22.882Z,99.90
2018-03-14T16:32:51.133Z,99.90
2018-03-14T16:35:18.634Z,99.90
2018-03-14T16:37:46.115Z,99.90
2018-03-14T16:40:13.610Z,99.90
2018-03-14T16:42:41.089Z,99.90
2018-03-14T16:45:09.329Z,99.90
2018-03-14T16:47:36.826Z,99.90
2018-03-14T16:50:05.345Z,99.90
2018-03-14T16:52:32.918Z,99.90
2018-03-14T16:55:00.386Z,99.90
2018-03-14T16:57:27.875Z,99.90
2018-03-14T16:59:56.114Z,99.90
2018-03-14T17:02:23.609Z,99.90
2018-03-14T17:04:51.915Z,99.90
2018-03-14T17:07:20.126Z,99.90
2018-03-14T17:09:47.617Z,99.90
2018-03-14T17:12:15.866Z,99.90
2018-03-14T17:14:43.342Z,99.90
2018-03-14T17:17:10.839Z,99.90
2018-03-14T17:19:38.309Z,99.90
2018-03-14T17:22:05.802Z,99.90
2018-03-14T17:24:33.295Z,99.90
2018-03-14T17:27:01.084Z,99.90
2018-03-14T17:29:28.582Z,99.90
2018-03-14T17:31:56.078Z,99.90
2018-03-14T17:34:23.584Z,99.90
2018-03-14T17:36:51.065Z,99.90
2018-03-14T17:39:19.365Z,99.90
2018-03-14T17:41:46.890Z,99.90
2018-03-14T17:44:14.376Z,99.90
2018-03-14T17:46:41.880Z,99.90
2018-03-14T17:49:09.382Z,99.90
2018-03-14T17:51:37.622Z,99.90
2018-03-14T17:54:05.917Z,99.90
2018-03-14T17:56:34.174Z,99.90
2018-03-14T17:59:02.460Z,99.90
2018-03-14T18:01:29.945Z,99.90
2018-03-14T18:03:58.191Z,99.90
2018-03-14T18:06:25.691Z,99.90
2018-03-14T18:08:53.175Z,99.90
2018-03-14T18:11:20.677Z,99.90
2018-03-14T18:13:48.938Z,99.90
2018-03-14T18:16:16.420Z,99.90
2018-03-14T18:18:44.716Z,99.90
2018-03-14T18:21:12.215Z,99.90
2018-03-14T18:23:39.718Z,99.90
2018-03-14T18:26:07.962Z,99.90
2018-03-14T18:28:35.546Z,99.90
2018-03-14T18:31:04.065Z,99.90
2018-03-14T18:33:31.565Z,99.90
2018-03-14T18:35:59.145Z,99.90
2018-03-14T18:38:27.440Z,99.90
2018-03-14T18:40:55.682Z,99.90
2018-03-14T18:43:23.923Z,99.90
2018-03-14T18:45:51.414Z,99.90
2018-03-14T18:48:19.674Z,99.90
2018-03-14T18:50:47.165Z,99.90
2018-03-14T18:53:15.421Z,99.90
2018-03-14T18:55:43.666Z,99.90
2018-03-14T18:58:11.207Z,99.90
2018-03-14T19:00:38.721Z,99.90
2018-03-14T19:03:06.992Z,99.90
2018-03-14T19:05:35.307Z,99.90
2018-03-14T19:08:02.798Z,99.90
2018-03-14T19:10:30.349Z,99.90
2018-03-14T19:12:57.822Z,99.90
2018-03-14T19:15:25.320Z,99.90
2018-03-14T19:17:52.885Z,99.90
2018-03-14T19:20:20.422Z,99.90
2018-03-14T19:22:48.702Z,99.90
2018-03-14T19:25:16.945Z,99.90
2018-03-14T19:27:44.441Z,99.90
2018-03-14T19:30:12.701Z,99.90
2018-03-14T19:32:40.998Z,99.90
2018-03-14T19:35:08.490Z,99.90
2018-03-14T19:37:35.969Z,99.90
2018-03-14T19:40:03.468Z,99.90
2018-03-14T19:42:31.714Z,99.90
2018-03-14T19:44:59.298Z,99.90
2018-03-14T19:47:27.549Z,99.90
2018-03-14T19:49:55.855Z,99.90
2018-03-14T19:52:23.321Z,99.90
2018-03-14T19:54:50.797Z,99.90
2018-03-14T19:57:18.300Z,99.90
2018-03-14T19:59:45.781Z,99.90
2018-03-14T20:02:14.055Z,99.90
2018-03-14T20:04:42.302Z,99.90
2018-03-14T20:07:09.905Z,99.90
2018-03-14T20:09:37.442Z,99.90
2018-03-14T20:12:05.698Z,99.90
2018-03-14T20:14:33.265Z,99.90
2018-03-14T20:17:01.509Z,99.90
2018-03-14T20:19:28.980Z,99.90
2018-03-14T20:21:56.482Z,99.90
2018-03-14T20:24:24.044Z,99.90
2018-03-14T20:26:51.562Z,99.90
2018-03-14T20:29:19.058Z,99.90
2018-03-14T20:31:46.542Z,99.90
2018-03-14T20:34:14.066Z,99.90
2018-03-14T20:36:41.585Z,99.90
2018-03-14T20:39:09.080Z,99.90
2018-03-14T20:41:36.562Z,99.90
2018-03-14T20:44:04.042Z,99.90
2018-03-14T20:46:31.534Z,99.90
2018-03-14T20:48:59.018Z,99.90
2018-03-14T20:51:26.513Z,99.90
2018-03-14T20:53:53.997Z,99.90
2018-03-14T20:56:21.469Z,99.90
2018-03-14T20:58:49.739Z,99.90
2018-03-14T21:01:17.993Z,99.90
2018-03-14T21:03:45.497Z,99.90
2018-03-14T21:06:12.978Z,99.90
2018-03-14T21:08:40.461Z,99.90
2018-03-14T21:11:07.954Z,99.90
2018-03-14T21:13:36.200Z,99.90
2018-03-14T21:16:05.653Z,99.90
2018-03-14T21:18:33.156Z,99.90
2018-03-14T21:21:00.634Z,99.90
2018-03-14T21:23:28.130Z,99.90
2018-03-14T21:25:55.689Z,99.90
2018-03-14T21:28:23.201Z,99.90
2018-03-14T21:30:50.686Z,99.90
2018-03-14T21:33:18.965Z,99.90
2018-03-14T21:35:46.457Z,99.90
2018-03-14T21:38:13.938Z,99.90
2018-03-14T21:40:41.437Z,99.90
2018-03-14T21:43:08.933Z,99.90
2018-03-14T21:45:36.411Z,99.90
2018-03-14T21:48:03.941Z,99.90
2018-03-14T21:50:31.466Z,99.90
2018-03-14T21:52:59.792Z,99.90
2018-03-14T21:55:38.199Z,99.90
2018-03-14T21:58:05.743Z,99.90
2018-03-14T22:00:33.197Z,99.90
2018-03-14T22:03:00.681Z,99.90
2018-03-14T22:05:28.273Z,99.90
2018-03-14T22:07:55.797Z,99.90
2018-03-14T22:10:23.265Z,99.90
2018-03-14T22:12:50.832Z,99.90
2018-03-14T22:15:18.394Z,99.90
2018-03-14T22:17:45.941Z,99.90
2018-03-14T22:20:13.477Z,99.90
2018-03-14T22:22:40.977Z,99.90
2018-03-14T22:25:09.242Z,99.90
2018-03-14T22:27:36.842Z,99.90
2018-03-14T22:30:04.321Z,99.90
2018-03-14T22:32:31.826Z,99.90
2018-03-14T22:34:59.317Z,99.90
2018-03-14T22:37:26.793Z,99.90
2018-03-14T22:39:54.290Z,99.90
2018-03-14T22:42:21.777Z,99.90
2018-03-14T22:44:50.018Z,99.90
2018-03-14T22:47:17.536Z,99.90
2018-03-14T22:49:45.021Z,99.90
2018-03-14T22:52:12.525Z,99.90
2018-03-14T22:54:40.078Z,99.90
2018-03-14T22:57:07.574Z,99.90
2018-03-14T22:59:35.073Z,99.90
2018-03-14T23:02:02.550Z,99.90
2018-03-14T23:04:30.817Z,99.90
2018-03-14T23:06:59.057Z,99.90
2018-03-14T23:09:26.535Z,99.90
2018-03-14T23:11:54.085Z,99.90
2018-03-14T23:14:21.557Z,99.90
2018-03-14T23:16:49.125Z,99.90
2018-03-14T23:19:17.387Z,99.90
2018-03-14T23:21:44.870Z,99.90
2018-03-14T23:24:12.419Z,99.90
2018-03-14T23:26:39.861Z,99.90
2018-03-14T23:29:07.343Z,99.90
2018-03-14T23:31:35.594Z,99.90
2018-03-14T23:34:03.173Z,99.90
2018-03-14T23:36:31.442Z,99.90
2018-03-14T23:38:59.719Z,99.90
2018-03-14T23:41:27.957Z,99.90
2018-03-14T23:43:55.697Z,99.90
2018-03-14T23:46:23.189Z,99.90
2018-03-14T23:48:51.469Z,99.90
2018-03-14T23:51:20.467Z,99.90
2018-03-14T23:53:48.045Z,99.90
2018-03-14T23:56:16.298Z,99.90
2018-03-14T23:58:43.884Z,99.90
